Terminal Aerodrome Forecast
Issued by NWS

Home | Current Version | Previous Version | Text Only | Print | Product List | Glossary On
Versions: 1 2 3 4 5 6 7 8 9 10 11 12 13 14 15 16 17 18 19 20 21 22
612
FTUS43 KDTX 201739
TAFDET
TAF
KDET 201739Z 2018/2118 08008KT 3/4SM BR OVC003
     FM202100 19005KT 4SM BR OVC004
     FM210200 19004KT 1SM BR OVC003
     FM210400 VRB03KT 1/2SM FG OVC002
     FM211400 17007KT 1SM BR OVC002
     FM211700 18008KT 3SM BR OVC004=

USA.gov is the U.S. government's official web portal to all federal, state and local government web resources and services.